createdAt,value
2022-10-18T00:04:13.209Z,99175.34
2022-10-18T00:09:15.081Z,99175.53
2022-10-18T00:14:17.091Z,99187.97
2022-10-18T00:19:18.933Z,99188.97
2022-10-18T00:24:20.781Z,99188.16
2022-10-18T00:29:22.561Z,99186.53
2022-10-18T00:34:24.491Z,99192.75
2022-10-18T00:39:26.402Z,99188.50
2022-10-18T00:44:28.374Z,99181.47
2022-10-18T00:49:38.163Z,99182.47
2022-10-18T00:54:44.169Z,99177.88
2022-10-18T00:59:47.176Z,99176.88
2022-10-18T01:04:49.319Z,99173.09
2022-10-18T01:10:38.063Z,99179.94
2022-10-18T01:16:03.901Z,99178.78
2022-10-18T01:21:37.833Z,99176.44
2022-10-18T01:27:00.319Z,99186.13
2022-10-18T01:32:13.332Z,99179.06
2022-10-18T01:37:18.330Z,99174.47
2022-10-18T01:42:21.625Z,99173.84
2022-10-18T01:47:23.961Z,99181.22
2022-10-18T01:52:25.853Z,99183.56
2022-10-18T01:57:42.403Z,99182.94
2022-10-18T02:02:50.192Z,99184.72
2022-10-18T02:08:23.585Z,99178.31
2022-10-18T02:13:35.470Z,99181.13
2022-10-18T02:18:42.628Z,99179.78
2022-10-18T02:23:46.542Z,99176.34
2022-10-18T02:28:48.441Z,99179.94
2022-10-18T02:34:18.492Z,99166.22
2022-10-18T02:39:25.745Z,99179.50
2022-10-18T02:44:27.544Z,99181.47
2022-10-18T02:49:29.484Z,99181.66
2022-10-18T02:54:31.291Z,99176.75
2022-10-18T02:59:33.786Z,99187.75
2022-10-18T03:04:35.602Z,99193.34
2022-10-18T03:09:37.418Z,99193.88
2022-10-18T03:14:39.228Z,99188.19
2022-10-18T03:19:41.351Z,99186.06
2022-10-18T03:24:43.182Z,99185.63
2022-10-18T03:29:44.930Z,99187.75
2022-10-18T03:34:46.734Z,99198.59
2022-10-18T03:39:48.537Z,99189.28
2022-10-18T03:44:50.303Z,99196.47
2022-10-18T03:49:54.766Z,99190.44
2022-10-18T03:54:59.044Z,99194.34
2022-10-18T04:00:00.954Z,99190.72
2022-10-18T04:05:02.936Z,99181.38
2022-10-18T04:10:05.067Z,99177.41
2022-10-18T04:15:07.702Z,99176.72
2022-10-18T04:20:10.091Z,99181.25
2022-10-18T04:25:11.982Z,99183.34
2022-10-18T04:30:14.093Z,99178.56
2022-10-18T04:35:16.038Z,99183.44
2022-10-18T04:40:18.005Z,99185.44
2022-10-18T04:45:20.142Z,99188.88
2022-10-18T04:50:22.061Z,99192.31
2022-10-18T04:55:24.786Z,99199.16
2022-10-18T05:00:26.665Z,99198.16
2022-10-18T05:05:49.890Z,99190.97
2022-10-18T05:10:50.605Z,99177.88
2022-10-18T05:15:52.473Z,99166.94
2022-10-18T05:20:54.411Z,99177.56
2022-10-18T05:26:01.613Z,99181.81
2022-10-18T05:31:07.850Z,99181.00
2022-10-18T05:36:11.007Z,99171.34
2022-10-18T05:41:13.232Z,99166.13
2022-10-18T05:46:15.831Z,99169.38
2022-10-18T05:51:19.319Z,99157.09
2022-10-18T05:56:21.204Z,99159.72
2022-10-18T06:01:23.251Z,99140.75
2022-10-18T06:06:25.130Z,99126.38
2022-10-18T06:11:27.203Z,99133.41
2022-10-18T06:16:32.475Z,99129.81
2022-10-18T06:21:34.981Z,99149.22
2022-10-18T06:26:39.853Z,99152.13
2022-10-18T06:31:44.533Z,99126.41
2022-10-18T06:36:46.385Z,99136.34
2022-10-18T06:41:48.178Z,99156.31
2022-10-18T06:46:59.397Z,99143.03
2022-10-18T06:52:01.296Z,99147.28
2022-10-18T06:57:03.357Z,99145.13
2022-10-18T07:02:05.169Z,99136.72
2022-10-18T07:07:07.017Z,99134.38
2022-10-18T07:12:08.889Z,99135.66
2022-10-18T07:17:10.759Z,99134.31
2022-10-18T07:22:12.604Z,99136.59
2022-10-18T07:27:14.436Z,99147.53
2022-10-18T07:32:16.233Z,99133.88
2022-10-18T07:37:18.172Z,99132.00
2022-10-18T07:42:20.026Z,99141.38
2022-10-18T07:47:21.759Z,99137.41
2022-10-18T07:52:23.527Z,99132.25
2022-10-18T07:57:25.491Z,99123.03
2022-10-18T08:02:27.579Z,99134.59
2022-10-18T08:07:29.539Z,99129.44
2022-10-18T08:12:31.651Z,99134.94
2022-10-18T08:17:34.586Z,99142.53
2022-10-18T08:22:36.895Z,99118.03
2022-10-18T08:27:39.078Z,99111.34
2022-10-18T08:32:40.965Z,99102.03
2022-10-18T08:37:42.810Z,99078.81
2022-10-18T08:42:54.996Z,99081.44
2022-10-18T08:47:58.301Z,99072.66
2022-10-18T08:53:18.115Z,99071.47
2022-10-18T08:58:23.428Z,99065.34
2022-10-18T09:04:03.121Z,99071.75
2022-10-18T09:09:17.200Z,99069.31
2022-10-18T09:15:04.161Z,99055.84
2022-10-18T09:20:17.988Z,99060.47
2022-10-18T09:25:24.569Z,99040.47
2022-10-18T09:30:58.757Z,99037.94
2022-10-18T09:36:05.858Z,99034.00
2022-10-18T09:41:15.168Z,99033.28
2022-10-18T09:46:20.697Z,99033.28
2022-10-18T09:51:28.336Z,99019.16
2022-10-18T09:56:31.990Z,99020.41
2022-10-18T10:01:34.035Z,99009.09
2022-10-18T10:06:39.298Z,99007.91
2022-10-18T10:11:51.844Z,99007.72
2022-10-18T10:17:03.590Z,99009.22
2022-10-18T10:22:09.608Z,98996.84
2022-10-18T10:27:32.722Z,99001.44
2022-10-18T10:32:50.615Z,99002.91
2022-10-18T10:37:54.328Z,98990.78
2022-10-18T10:43:18.130Z,99013.59
2022-10-18T10:48:33.465Z,99032.91
2022-10-18T10:53:54.034Z,99065.50
2022-10-18T10:59:01.633Z,99108.94
2022-10-18T11:04:22.941Z,99109.97
2022-10-18T11:09:32.204Z,99112.97
2022-10-18T11:14:41.954Z,99103.78
2022-10-18T11:19:50.153Z,99115.63
2022-10-18T11:24:52.070Z,99112.38
2022-10-18T11:30:29.033Z,99118.59
2022-10-18T11:35:50.476Z,99112.91
2022-10-18T11:41:40.798Z,99115.91
2022-10-18T11:47:17.119Z,99125.56
2022-10-18T11:52:33.769Z,99123.94
2022-10-18T11:57:54.182Z,99133.44
2022-10-18T12:03:24.148Z,99137.88
2022-10-18T12:08:36.533Z,99145.28
2022-10-18T12:13:59.385Z,99142.66
2022-10-18T12:19:11.813Z,99147.09
2022-10-18T12:24:21.641Z,99145.63
2022-10-18T12:29:37.452Z,99158.09
2022-10-18T12:34:51.691Z,99158.91
2022-10-18T12:40:12.154Z,99163.34
2022-10-18T12:45:35.573Z,99136.31
2022-10-18T12:50:43.632Z,99118.78
2022-10-18T12:55:51.957Z,99135.97
2022-10-18T13:00:57.288Z,99151.88
2022-10-18T13:06:02.981Z,99164.16
2022-10-18T13:11:08.226Z,99177.25
2022-10-18T13:16:25.286Z,99179.06
2022-10-18T13:21:48.548Z,99171.38
2022-10-18T13:27:18.030Z,99172.56
2022-10-18T13:32:29.559Z,99181.41
2022-10-18T13:37:32.303Z,99178.63
2022-10-18T13:42:34.598Z,99181.25
2022-10-18T13:47:38.370Z,99176.19
2022-10-18T13:53:24.671Z,99172.56
2022-10-18T13:58:49.187Z,99156.84
2022-10-18T14:04:23.233Z,99158.47
2022-10-18T14:09:45.335Z,99154.84
2022-10-18T14:14:56.723Z,99146.63
2022-10-18T14:20:14.601Z,99152.31
2022-10-18T14:25:20.806Z,99143.56
2022-10-18T14:30:23.062Z,99149.44
2022-10-18T14:35:32.521Z,99145.81
2022-10-18T14:40:40.574Z,99148.06
2022-10-18T14:45:43.130Z,99167.25
2022-10-18T14:50:47.434Z,99183.78
2022-10-18T14:56:00.866Z,99195.00
2022-10-18T15:01:03.163Z,99198.34
2022-10-18T15:06:07.773Z,99184.31
2022-10-18T15:11:14.266Z,99176.81
2022-10-18T15:16:18.943Z,99182.22
2022-10-18T15:21:24.751Z,99189.09
2022-10-18T15:26:30.461Z,99183.03
2022-10-18T15:31:35.948Z,99179.63
2022-10-18T15:36:38.128Z,99177.16
2022-10-18T15:41:45.441Z,99179.16
2022-10-18T15:46:47.917Z,99184.72
2022-10-18T15:51:51.376Z,99200.81
2022-10-18T15:56:53.185Z,99203.78
2022-10-18T16:01:55.376Z,99206.94
2022-10-18T16:06:58.169Z,99213.16
2022-10-18T16:11:59.982Z,99217.94
2022-10-18T16:17:05.105Z,99215.03
2022-10-18T16:22:07.206Z,99227.84
2022-10-18T16:27:10.249Z,99233.44
2022-10-18T16:32:11.991Z,99233.59
2022-10-18T16:37:14.193Z,99237.22
2022-10-18T16:42:16.035Z,99254.09
2022-10-18T16:47:18.092Z,99246.59
2022-10-18T16:52:19.902Z,99239.91
2022-10-18T16:57:21.747Z,99242.88
2022-10-18T17:02:23.568Z,99242.41
2022-10-18T17:07:25.743Z,99247.81
2022-10-18T17:12:27.574Z,99250.59
2022-10-18T17:17:29.621Z,99248.97
2022-10-18T17:22:31.892Z,99249.31
2022-10-18T17:27:33.793Z,99254.56
2022-10-18T17:32:35.723Z,99258.16
2022-10-18T17:37:42.718Z,99256.72
2022-10-18T17:42:47.686Z,99252.63
2022-10-18T17:47:49.589Z,99247.09
2022-10-18T17:52:51.378Z,99246.97
2022-10-18T17:57:53.209Z,99252.09
2022-10-18T18:03:01.280Z,99255.22
2022-10-18T18:08:04.369Z,99259.97
2022-10-18T18:13:06.491Z,99261.78
2022-10-18T18:18:08.235Z,99258.19
2022-10-18T18:23:10.061Z,99254.41
2022-10-18T18:28:11.867Z,99255.03
2022-10-18T18:33:13.672Z,99254.06
2022-10-18T18:38:15.516Z,99248.81
2022-10-18T18:43:24.560Z,99258.31
2022-10-18T18:48:28.153Z,99259.28
2022-10-18T18:53:30.663Z,99262.91
2022-10-18T18:58:34.835Z,99255.88
2022-10-18T19:03:38.789Z,99250.63
2022-10-18T19:08:40.637Z,99254.06
2022-10-18T19:13:42.761Z,99253.25
2022-10-18T19:18:58.041Z,99256.84
2022-10-18T19:24:00.462Z,99259.63
2022-10-18T19:29:16.351Z,99273.72
2022-10-18T19:34:19.666Z,99277.31
2022-10-18T19:39:22.874Z,99262.94
2022-10-18T19:44:28.827Z,99277.34
2022-10-18T19:49:30.773Z,99282.28
2022-10-18T19:54:32.694Z,99277.28
2022-10-18T19:59:36.232Z,99283.31
2022-10-18T20:04:38.311Z,99278.47
2022-10-18T20:09:40.403Z,99292.38
2022-10-18T20:14:42.259Z,99297.28
2022-10-18T20:19:44.208Z,99289.13
2022-10-18T20:24:46.066Z,99288.81
2022-10-18T20:29:47.799Z,99279.03
2022-10-18T20:34:49.553Z,99274.44
2022-10-18T20:39:51.329Z,99286.06
2022-10-18T20:44:53.394Z,99288.34
2022-10-18T20:49:55.141Z,99286.41
2022-10-18T20:54:56.875Z,99275.94
2022-10-18T20:59:58.863Z,99278.72
2022-10-18T21:05:00.554Z,99288.34
2022-10-18T21:10:02.282Z,99281.34
2022-10-18T21:15:04.363Z,99287.72
2022-10-18T21:20:07.055Z,99283.78
2022-10-18T21:25:10.365Z,99272.34
2022-10-18T21:35:19.579Z,99280.19
2022-10-18T21:40:21.244Z,99276.59
2022-10-18T21:45:23.000Z,99275.28
2022-10-18T21:50:24.723Z,99281.97
2022-10-18T21:55:26.474Z,99279.84
2022-10-18T22:00:28.200Z,99281.81
2022-10-18T22:05:30.042Z,99275.91
2022-10-18T22:10:32.318Z,99286.69
2022-10-18T22:15:34.055Z,99288.97
2022-10-18T22:20:35.899Z,99277.34
2022-10-18T22:25:37.537Z,99260.50
2022-10-18T22:30:40.845Z,99259.34
2022-10-18T22:35:42.548Z,99271.44
2022-10-18T22:40:45.043Z,99274.88
2022-10-18T22:45:46.806Z,99276.69
2022-10-18T22:50:51.661Z,99266.56
2022-10-18T22:55:54.085Z,99260.69
2022-10-18T23:01:08.118Z,99259.06
2022-10-18T23:06:27.156Z,99259.22
2022-10-18T23:11:29.260Z,99266.75
2022-10-18T23:16:31.247Z,99261.19
2022-10-18T23:21:34.370Z,99262.53
2022-10-18T23:26:36.089Z,99267.59
2022-10-18T23:31:37.906Z,99268.25
2022-10-18T23:36:39.730Z,99277.41
2022-10-18T23:41:41.526Z,99271.88
2022-10-18T23:46:43.218Z,99274.47
2022-10-18T23:51:44.975Z,99263.22
2022-10-18T23:56:46.705Z,99271.22
